MET'MAP v2.0
soon released !

Expected late october,
this new version will be
more efficient, smarter,
and hosted on a brand new
server x3 powerfull...
...and still free !


Not compatible ?
Try the mobile version !

LOG IN : | Subscribe | Disclaimer | Who is Orbifly ? |
ICAO code :
Legend : VFR Marginal VFR IFR Intensive IFR Very Intensive IFR
Visi :
Ceiling :
>= 8 km
>= 3000ft
5 to 8 km
1000 to 3000 ft
1500m to 5 km
500 to 1000 ft
800 to 1500m
200 to 500 ft
< 800m
< 200 ft

METAR - GMTA Al Hoceima - 08 Apr 2020 01:56 UTC - Data Source NOAA   


- Airport Elevation : 95 ft
- IATA code : AHU
- No reported NOTAMs.


GMTA - Al Hoceima

Latest METAR recorded : 2015/08/11 08:00 GMTA 110800Z VRB02KT 8000 BKN100 BKN200 30/23 Q1013 NOSIG
TAF TAF GMTA
Valid from the 08 at 00:00 until the 09 at 06:00 UTC


072300Z 0800/0906 04009KT 9999 BKN026

Source NOAA


MET'MAP, your aeronautical weather chart ! - Copyright ORBIFLY December 2007

Programming & Development : Alexandra Zaïnal
Co-Developer : Marc-Olivier Méhu
Technical & hardware support : Manuel Goepfert
Concept & Financing : Baudouin d'Aumeries